Time;durP1;ratioP1;P1;durP2;ratioP2;P2;SDS_P1;SDS_P2;PMS_P1;PMS_P2;Temp;Humidity;BMP_temperature;BMP_pressure;BME280_temperature;BME280_humidity;BME280_pressure;Samples;Min_cycle;Max_cycle;Signal;HPM_P1;HPM_P2
2022/05/25 00:00:00;;;;;;;;;1.00;0.00;;;;;13.71;74.30;100519.22;5039558;28;45346;-73
2022/05/25 00:02:27;;;;;;;;;0.00;0.00;;;;;13.70;75.17;100524.44;5039189;28;46120;-73
2022/05/25 00:04:54;;;;;;;;;0.00;0.00;;;;;13.66;74.75;100515.63;5039360;28;45413;-71
2022/05/25 00:07:21;;;;;;;;;0.00;0.00;;;;;13.72;75.39;100527.97;5039653;28;45304;-71
2022/05/25 00:09:47;;;;;;;;;0.00;0.00;;;;;13.73;75.46;100527.16;5039934;28;45291;-75
2022/05/25 00:12:13;;;;;;;;;0.00;0.00;;;;;13.76;75.07;100523.69;5039109;28;45987;-75
2022/05/25 00:14:39;;;;;;;;;0.00;0.00;;;;;13.66;75.15;100502.50;5039414;28;45386;-74
2022/05/25 00:17:05;;;;;;;;;0.33;0.33;;;;;13.69;75.31;100518.31;5039377;28;45327;-75
2022/05/25 00:22:15;;;;;;;;;0.00;0.00;;;;;13.47;75.33;100501.34;5039240;28;45736;-75
2022/05/25 00:24:40;;;;;;;;;1.00;1.00;;;;;13.56;75.00;100508.47;5039025;28;45410;-75
2022/05/25 00:27:06;;;;;;;;;0.00;0.00;;;;;13.62;75.27;100505.94;5039252;28;45416;-71
2022/05/25 00:29:32;;;;;;;;;0.00;0.00;;;;;13.62;74.36;100521.69;5039348;28;45299;-75
2022/05/25 00:31:59;;;;;;;;;0.00;0.00;;;;;13.58;75.13;100514.63;5038863;28;46053;-74
2022/05/25 00:34:25;;;;;;;;;3.00;1.00;;;;;13.47;75.56;100503.06;5039024;28;45380;-74
2022/05/25 00:36:51;;;;;;;;;1.00;1.00;;;;;13.51;74.90;100518.91;5039375;28;45510;-72
2022/05/25 00:39:17;;;;;;;;;0.00;0.00;;;;;13.27;74.92;100502.66;5054912;28;45439;-74
2022/05/25 00:41:42;;;;;;;;;0.33;0.00;;;;;13.29;75.34;100517.63;5038797;28;46125;-75
2022/05/25 00:44:08;;;;;;;;;0.00;0.00;;;;;13.30;76.04;100522.00;5038720;28;45275;-76
2022/05/25 00:46:38;;;;;;;;;1.00;0.00;;;;;13.38;75.89;100522.16;5038889;28;45528;-72
2022/05/25 00:49:06;;;;;;;;;0.00;0.00;;;;;13.47;75.85;100521.44;5038919;28;45390;-72
2022/05/25 00:51:42;;;;;;;;;0.00;0.00;;;;;13.52;75.41;100522.41;5038304;28;45537;-75
2022/05/25 00:54:15;;;;;;;;;1.00;0.00;;;;;13.49;75.26;100506.63;5038219;28;45154;-73
2022/05/25 00:56:43;;;;;;;;;1.67;0.33;;;;;13.44;74.57;100498.63;5053302;28;45428;-75
2022/05/25 00:59:14;;;;;;;;;1.00;0.00;;;;;13.56;74.25;100520.72;5038578;28;45487;-72
2022/05/25 01:01:41;;;;;;;;;0.00;0.00;;;;;13.55;74.43;100516.31;5038169;28;45438;-71
2022/05/25 01:04:07;;;;;;;;;0.00;0.00;;;;;13.57;74.71;100520.75;5038287;28;45439;-71
2022/05/25 01:07:01;;;;;;;;;0.00;0.00;;;;;13.40;74.97;100483.69;5038383;28;45304;-71
2022/05/25 01:09:29;;;;;;;;;0.00;0.00;;;;;13.63;75.23;100517.34;5038519;28;45378;-72
2022/05/25 01:12:16;;;;;;;;;0.00;0.00;;;;;13.65;75.12;100516.50;5038099;28;46100;-71
2022/05/25 01:15:06;;;;;;;;;0.00;0.00;;;;;13.70;75.51;100525.31;5038370;28;45543;-72
2022/05/25 01:18:03;;;;;;;;;0.00;0.00;;;;;13.57;74.48;100493.59;5038311;28;45337;-71
2022/05/25 01:20:49;;;;;;;;;1.00;0.00;;;;;13.67;75.08;100525.28;5038566;28;45363;-71
2022/05/25 01:23:39;;;;;;;;;0.00;0.00;;;;;13.66;74.45;100531.38;5036839;28;46548;-71
2022/05/25 01:26:35;;;;;;;;;0.00;0.00;;;;;13.62;74.16;100537.44;5037801;28;45301;-75
2022/05/25 01:29:40;;;;;;;;;0.33;0.33;;;;;13.52;75.36;100553.88;5038218;28;45283;-75
2022/05/25 01:32:11;;;;;;;;;1.00;1.00;;;;;13.48;73.76;100545.06;5053785;28;45276;-72
2022/05/25 01:34:43;;;;;;;;;1.00;1.00;;;;;13.31;73.86;100533.41;5036644;28;46545;-72
2022/05/25 01:37:16;;;;;;;;;0.67;0.00;;;;;13.38;73.34;100545.75;5037964;28;45312;-72
2022/05/25 01:39:53;;;;;;;;;1.00;1.00;;;;;13.30;73.41;100537.75;5038024;28;45379;-71
2022/05/25 01:42:44;;;;;;;;;1.67;1.00;;;;;13.21;73.30;100544.53;5038209;28;45415;-71
2022/05/25 01:45:10;;;;;;;;;0.00;0.00;;;;;13.03;74.96;100526.69;5037655;28;45394;-71
2022/05/25 01:47:43;;;;;;;;;2.00;1.00;;;;;13.03;75.46;100537.19;5037722;28;45489;-72
2022/05/25 01:50:16;;;;;;;;;2.00;1.00;;;;;12.96;75.91;100535.31;5037799;28;45755;-72
2022/05/25 01:52:46;;;;;;;;;0.33;0.00;;;;;12.95;76.09;100542.25;5037717;28;45458;-71
2022/05/25 01:55:20;;;;;;;;;1.00;1.00;;;;;12.99;76.16;100546.75;5037617;28;45552;-74
2022/05/25 01:57:52;;;;;;;;;0.33;0.33;;;;;13.03;75.88;100547.66;5037578;28;45377;-74
2022/05/25 02:00:28;;;;;;;;;1.00;1.00;;;;;13.07;76.09;100545.16;5037469;28;45533;-73
2022/05/25 02:06:06;;;;;;;;;2.00;1.00;;;;;13.04;75.89;100533.72;5037272;28;45438;-72
2022/05/25 02:08:55;;;;;;;;;1.00;1.00;;;;;13.20;75.44;100551.50;5035993;28;45447;-71
2022/05/25 02:11:43;;;;;;;;;1.00;0.00;;;;;13.24;75.73;100555.97;5036799;28;45657;-71
2022/05/25 02:14:51;;;;;;;;;1.00;1.00;;;;;13.29;75.54;100553.41;5053107;28;45319;-73
2022/05/25 02:17:55;;;;;;;;;0.67;0.67;;;;;13.33;75.26;100558.81;5028886;28;45600;-71
2022/05/25 02:21:03;;;;;;;;;0.00;0.00;;;;;13.38;75.43;100569.38;5037401;28;45476;-72
2022/05/25 02:23:43;;;;;;;;;1.00;0.00;;;;;13.35;75.12;100552.69;5007891;28;45385;-74
2022/05/25 02:26:16;;;;;;;;;0.00;0.00;;;;;13.38;75.21;100547.50;5037436;28;45371;-71
2022/05/25 02:28:55;;;;;;;;;1.33;0.00;;;;;13.44;74.98;100559.00;5037058;28;45444;-72
2022/05/25 02:31:27;;;;;;;;;1.00;1.00;;;;;13.46;74.87;100538.03;5036928;28;45461;-72
2022/05/25 02:33:57;;;;;;;;;1.00;0.00;;;;;13.49;74.97;100544.22;5037567;28;45750;-74
2022/05/25 02:36:24;;;;;;;;;0.00;0.00;;;;;13.59;74.62;100562.75;5037675;28;45485;-74
2022/05/25 02:38:49;;;;;;;;;0.67;0.00;;;;;13.53;74.68;100560.91;5036914;28;45975;-72
2022/05/25 02:41:27;;;;;;;;;0.00;0.00;;;;;13.35;75.07;100542.19;5036982;28;45410;-72
2022/05/25 02:43:53;;;;;;;;;1.00;0.00;;;;;13.44;75.28;100561.63;5037506;28;45292;-71
2022/05/25 02:46:19;;;;;;;;;0.00;0.00;;;;;13.41;75.17;100558.03;5037186;28;45608;-74
2022/05/25 02:48:44;;;;;;;;;0.00;0.00;;;;;13.45;75.50;100567.75;5036934;28;46184;-74
2022/05/25 02:51:10;;;;;;;;;1.67;1.00;;;;;13.40;75.51;100567.66;5036838;28;45357;-72
2022/05/25 02:53:35;;;;;;;;;1.00;0.67;;;;;13.43;75.12;100572.06;5035616;28;45395;-72
2022/05/25 02:56:02;;;;;;;;;1.67;0.00;;;;;13.37;75.07;100558.84;5037305;28;45302;-71
2022/05/25 02:58:27;;;;;;;;;1.00;1.00;;;;;13.20;74.64;100540.16;5037077;28;45707;-72
2022/05/25 03:00:54;;;;;;;;;2.00;1.00;;;;;13.23;76.04;100577.81;5036587;28;45323;-71
2022/05/25 03:03:20;;;;;;;;;1.00;1.00;;;;;13.11;75.88;100578.47;5036932;28;45477;-71
2022/05/25 03:05:46;;;;;;;;;1.00;1.00;;;;;13.09;76.19;100580.16;5036793;28;45430;-71
2022/05/25 03:08:11;;;;;;;;;1.00;1.00;;;;;12.99;75.61;100569.44;5036563;28;45238;-71
2022/05/25 03:10:37;;;;;;;;;0.00;0.00;;;;;13.00;76.16;100587.84;5036543;28;45468;-71
2022/05/25 03:13:05;;;;;;;;;0.67;0.67;;;;;12.98;76.32;100591.28;5035433;28;45457;-72
2022/05/25 03:15:31;;;;;;;;;1.33;1.00;;;;;12.92;76.91;100579.81;5036982;28;45422;-71
2022/05/25 03:17:56;;;;;;;;;0.67;0.67;;;;;12.98;77.85;100592.16;5036727;28;46000;-71
2022/05/25 03:20:22;;;;;;;;;1.00;0.33;;;;;13.01;77.38;100599.19;5040100;28;45493;-72
2022/05/25 03:22:47;;;;;;;;;1.00;0.00;;;;;13.02;77.64;100603.59;5038955;28;45396;-71
2022/05/25 03:25:14;;;;;;;;;1.00;0.67;;;;;13.04;77.43;100608.03;5040280;28;45362;-71
2022/05/25 03:27:39;;;;;;;;;0.00;0.00;;;;;12.96;77.12;100588.63;5039928;28;45492;-72
2022/05/25 03:30:08;;;;;;;;;0.67;0.00;;;;;13.10;77.07;100599.41;5039959;28;45345;-72
2022/05/25 03:32:35;;;;;;;;;1.00;1.00;;;;;13.12;76.84;100605.56;5040135;28;45339;-75
2022/05/25 03:35:02;;;;;;;;;1.00;0.00;;;;;13.18;76.22;100608.31;5040521;28;45515;-74
2022/05/25 03:37:28;;;;;;;;;0.33;0.33;;;;;13.19;76.77;100607.47;5040078;28;46073;-75
2022/05/25 03:39:54;;;;;;;;;1.00;1.00;;;;;13.19;76.42;100603.94;5039744;28;45466;-74
2022/05/25 03:42:22;;;;;;;;;1.33;0.00;;;;;13.11;76.67;100595.91;5040000;28;45327;-72
2022/05/25 03:44:48;;;;;;;;;0.00;0.00;;;;;13.14;76.67;100609.09;5040151;28;45266;-71
2022/05/25 03:47:15;;;;;;;;;4.00;4.00;;;;;13.26;76.74;100632.94;5039448;28;45530;-71
2022/05/25 03:49:41;;;;;;;;;2.33;2.00;;;;;13.30;76.90;100634.81;5039570;28;45557;-71
2022/05/25 03:52:07;;;;;;;;;1.00;1.00;;;;;13.32;76.76;100633.09;5039790;28;45383;-75
2022/05/25 03:54:32;;;;;;;;;0.00;0.00;;;;;13.31;75.97;100626.09;5039963;28;45524;-72
2022/05/25 03:56:58;;;;;;;;;1.00;1.00;;;;;13.29;75.99;100627.81;5039875;28;46286;-71
2022/05/25 03:59:24;;;;;;;;;1.00;1.00;;;;;13.24;76.86;100629.41;5039687;28;45348;-71
2022/05/25 04:01:50;;;;;;;;;0.00;0.00;;;;;13.26;76.03;100626.84;5055196;28;46289;-75
2022/05/25 04:04:16;;;;;;;;;1.00;1.00;;;;;13.16;75.90;100620.50;5039869;28;45561;-75
2022/05/25 04:06:42;;;;;;;;;0.00;0.00;;;;;13.24;76.19;100634.66;5039244;28;45473;-72
2022/05/25 04:09:10;;;;;;;;;0.00;0.00;;;;;13.18;76.00;100618.81;5039553;28;45317;-75
2022/05/25 04:11:37;;;;;;;;;1.00;1.00;;;;;13.28;75.93;100636.50;5039672;28;45507;-71
2022/05/25 04:14:03;;;;;;;;;0.33;0.33;;;;;13.30;76.13;100639.19;5039817;28;45236;-75
2022/05/25 04:16:28;;;;;;;;;0.33;0.00;;;;;13.19;75.98;100619.69;5039289;28;45454;-72
2022/05/25 04:18:54;;;;;;;;;1.00;1.00;;;;;13.33;75.84;100639.25;5039197;28;45363;-71
2022/05/25 04:21:20;;;;;;;;;1.00;0.00;;;;;13.31;76.37;100638.34;5039145;28;45476;-72
2022/05/25 04:23:45;;;;;;;;;1.00;1.00;;;;;13.27;76.53;100645.22;5039262;28;45358;-71
2022/05/25 04:26:11;;;;;;;;;0.00;0.00;;;;;13.10;76.65;100625.63;5039130;28;45354;-73
2022/05/25 04:28:37;;;;;;;;;1.00;1.00;;;;;13.02;76.67;100633.34;5039047;28;45315;-74
2022/05/25 04:31:03;;;;;;;;;2.00;1.00;;;;;13.03;77.34;100644.69;5038989;28;45613;-75
2022/05/25 04:33:30;;;;;;;;;0.00;0.00;;;;;12.94;77.23;100656.75;5039215;28;45342;-75
2022/05/25 04:35:57;;;;;;;;;1.00;1.00;;;;;12.87;77.67;100662.75;5038766;28;45416;-74
2022/05/25 04:38:23;;;;;;;;;1.00;1.00;;;;;12.75;77.70;100649.31;5038851;28;45544;-75
2022/05/25 04:40:49;;;;;;;;;1.00;1.00;;;;;12.83;77.79;100660.91;5038863;28;45481;-74
2022/05/25 04:43:18;;;;;;;;;0.00;0.00;;;;;12.88;78.06;100667.13;5054578;28;45589;-75
2022/05/25 04:45:46;;;;;;;;;1.67;1.00;;;;;13.01;78.37;100670.00;5038599;28;46198;-73
2022/05/25 04:48:16;;;;;;;;;1.00;1.00;;;;;13.04;77.98;100680.56;5038784;28;45178;-72
2022/05/25 04:50:44;;;;;;;;;1.33;1.00;;;;;12.94;77.73;100659.38;5038881;28;45330;-71
2022/05/25 04:53:12;;;;;;;;;1.00;1.00;;;;;13.07;77.70;100680.63;5038934;28;45236;-74
2022/05/25 04:58:28;;;;;;;;;1.00;1.00;;;;;13.14;77.65;100690.41;5038520;28;45443;-72
2022/05/25 05:00:55;;;;;;;;;3.67;2.67;;;;;13.05;76.50;100687.56;5053880;28;45415;-73
2022/05/25 05:03:23;;;;;;;;;1.00;1.00;;;;;13.07;76.52;100699.91;5038676;28;45494;-74
2022/05/25 05:05:49;;;;;;;;;3.00;2.00;;;;;12.99;77.72;100688.34;5037956;28;45341;-73
2022/05/25 05:08:15;;;;;;;;;3.33;2.00;;;;;13.08;77.50;100700.78;5038126;28;45332;-71
2022/05/25 05:10:41;;;;;;;;;2.00;1.00;;;;;13.09;76.97;100700.81;5038073;28;45417;-74
2022/05/25 05:13:08;;;;;;;;;1.00;1.00;;;;;13.13;76.70;100712.25;5038522;28;45369;-74
2022/05/25 05:15:35;;;;;;;;;1.00;1.00;;;;;13.16;76.45;100711.44;5038526;28;46346;-73
2022/05/25 05:18:01;;;;;;;;;2.00;1.00;;;;;13.06;76.42;100697.22;5038139;28;45402;-73
2022/05/25 05:20:28;;;;;;;;;1.00;1.00;;;;;13.19;76.54;100716.72;5038314;28;45277;-72
2022/05/25 05:22:53;;;;;;;;;2.00;2.00;;;;;13.12;76.23;100689.50;5038305;28;45422;-73
2022/05/25 05:25:19;;;;;;;;;2.00;2.00;;;;;13.19;76.19;100699.28;5037786;28;46105;-71
2022/05/25 05:27:45;;;;;;;;;1.00;1.00;;;;;13.28;76.43;100716.94;5038130;28;45440;-74
2022/05/25 05:30:14;;;;;;;;;2.00;2.00;;;;;13.35;76.28;100720.59;5036910;28;45623;-74
2022/05/25 05:32:39;;;;;;;;;2.00;2.00;;;;;13.41;76.72;100721.66;5038472;28;45362;-74
2022/05/25 05:35:06;;;;;;;;;2.33;2.33;;;;;13.50;76.46;100727.06;5038180;28;45389;-72
2022/05/25 05:37:46;;;;;;;;;2.00;2.00;;;;;13.56;75.53;100744.69;5053153;28;45473;-74
2022/05/25 05:40:16;;;;;;;;;1.00;1.00;;;;;13.55;75.30;100740.31;5037928;28;45234;-71
2022/05/25 05:42:45;;;;;;;;;1.00;1.00;;;;;13.49;75.55;100742.81;5037592;28;45536;-73
2022/05/25 05:45:16;;;;;;;;;1.67;1.00;;;;;13.51;75.40;100743.72;5037872;28;46231;-73
2022/05/25 05:47:54;;;;;;;;;2.00;2.00;;;;;13.55;75.47;100756.06;5026647;28;45585;-74
2022/05/25 05:50:22;;;;;;;;;2.00;2.00;;;;;13.64;75.08;100753.59;5018507;28;45517;-72
2022/05/25 05:52:50;;;;;;;;;0.00;0.00;;;;;13.81;74.67;100766.22;5016365;28;45652;-78
2022/05/25 05:55:16;;;;;;;;;1.00;1.00;;;;;14.04;73.64;100758.78;5015776;28;46521;-77
2022/05/25 05:57:42;;;;;;;;;1.00;1.00;;;;;14.40;73.77;100766.44;5016017;28;45872;-77
2022/05/25 06:00:09;;;;;;;;;1.67;1.00;;;;;14.94;73.01;100774.38;5016511;28;45358;-77
2022/05/25 06:02:34;;;;;;;;;4.00;3.33;;;;;15.29;72.75;100770.53;5018210;28;45507;-77
2022/05/25 06:05:00;;;;;;;;;1.00;0.67;;;;;17.03;68.12;100772.47;5017447;28;45911;-77
2022/05/25 06:07:26;;;;;;;;;2.00;2.00;;;;;17.08;65.67;100770.72;5017579;28;45320;-77
2022/05/25 06:09:51;;;;;;;;;1.00;0.67;;;;;16.57;66.48;100761.50;5017611;28;45568;-77
2022/05/25 06:12:20;;;;;;;;;1.00;1.00;;;;;16.26;66.94;100774.41;5017635;28;45513;-77
2022/05/25 06:14:45;;;;;;;;;1.67;0.67;;;;;16.05;68.32;100787.34;5016791;28;45367;-77
2022/05/25 06:19:55;;;;;;;;;1.33;1.00;;;;;15.81;69.34;100794.06;5017987;28;45401;-76
2022/05/25 06:22:20;;;;;;;;;2.00;1.00;;;;;15.68;68.48;100782.47;5017643;28;45356;-77
2022/05/25 06:24:50;;;;;;;;;1.00;1.00;;;;;15.71;69.05;100806.22;5017319;28;46002;-77
2022/05/25 06:27:17;;;;;;;;;1.00;1.00;;;;;15.73;69.25;100802.75;5032806;28;45570;-77
2022/05/25 06:29:48;;;;;;;;;2.00;2.00;;;;;15.69;68.74;100784.22;5016971;28;45408;-76
2022/05/25 06:32:16;;;;;;;;;2.00;1.00;;;;;16.08;68.28;100811.09;5017298;28;45524;-76
2022/05/25 06:34:47;;;;;;;;;1.00;0.00;;;;;16.42;66.88;100785.09;5015553;28;47711;-76
2022/05/25 06:37:22;;;;;;;;;1.00;1.00;;;;;16.46;66.60;100800.09;5015789;28;45474;-77
2022/05/25 06:39:49;;;;;;;;;1.00;1.00;;;;;16.28;66.83;100792.88;5017295;28;45519;-76
2022/05/25 06:42:14;;;;;;;;;0.00;0.00;;;;;16.28;67.18;100812.19;5017409;28;45324;-75
2022/05/25 06:44:42;;;;;;;;;2.00;0.33;;;;;16.30;67.63;100822.78;5017224;28;45569;-77
2022/05/25 06:47:07;;;;;;;;;12.00;6.00;;;;;16.27;67.18;100801.63;5017220;28;45257;-77
2022/05/25 06:49:34;;;;;;;;;5.00;4.00;;;;;16.60;67.09;100814.28;5017047;28;45401;-77
2022/05/25 06:52:00;;;;;;;;;1.67;1.33;;;;;19.57;61.19;100820.69;5032525;28;45352;-77
2022/05/25 06:54:25;;;;;;;;;0.67;0.67;;;;;24.34;49.66;100816.69;5020423;28;46267;-77
2022/05/25 06:56:51;;;;;;;;;0.00;0.00;;;;;27.97;41.09;100781.66;5020568;28;45355;-78
2022/05/25 06:59:17;;;;;;;;;1.00;0.00;;;;;28.70;38.30;100802.06;5020683;28;45292;-78
2022/05/25 07:01:43;;;;;;;;;0.33;0.00;;;;;30.03;36.27;100812.44;5020729;28;45494;-74
2022/05/25 07:04:10;;;;;;;;;0.00;0.00;;;;;32.57;32.14;100821.81;5020609;28;45459;-76
2022/05/25 07:06:37;;;;;;;;;0.00;0.00;;;;;33.08;29.99;100835.91;5020407;28;45481;-79
2022/05/25 07:09:05;;;;;;;;;0.67;0.00;;;;;34.15;28.57;100816.78;5020479;28;45416;-79
2022/05/25 07:11:31;;;;;;;;;0.00;0.00;;;;;33.41;29.59;100815.94;5020455;28;45274;-78
2022/05/25 07:13:58;;;;;;;;;0.00;0.00;;;;;30.88;32.72;100814.63;5020135;28;45502;-79
2022/05/25 07:16:23;;;;;;;;;0.00;0.00;;;;;28.75;34.83;100826.94;5020382;28;45363;-79
2022/05/25 07:18:49;;;;;;;;;1.67;0.00;;;;;27.03;38.06;100840.47;5018952;28;45328;-79
2022/05/25 07:21:20;;;;;;;;;0.00;0.00;;;;;26.05;39.17;100839.94;5020508;28;45514;-78
2022/05/25 07:23:48;;;;;;;;;0.00;0.00;;;;;25.97;40.15;100855.34;5018505;28;45589;-79
2022/05/25 07:26:14;;;;;;;;;0.00;0.00;;;;;28.62;36.66;100849.88;5020513;28;45675;-78
2022/05/25 07:28:40;;;;;;;;;0.00;0.00;;;;;33.36;29.29;100847.81;5019102;28;45499;-78
2022/05/25 07:31:17;;;;;;;;;0.00;0.00;;;;;34.51;26.30;100826.19;5019606;28;45466;-73
2022/05/25 07:33:47;;;;;;;;;1.67;1.67;;;;;32.37;28.62;100836.44;5020141;28;45368;-75
2022/05/25 07:36:14;;;;;;;;;0.00;0.00;;;;;34.91;26.23;100845.25;5018496;28;45442;-74
2022/05/25 07:38:44;;;;;;;;;0.00;0.00;;;;;35.80;25.66;100838.25;5018948;28;45411;-75
2022/05/25 07:41:10;;;;;;;;;0.67;0.00;;;;;33.86;27.29;100854.72;5019463;28;45447;-75
2022/05/25 07:43:39;;;;;;;;;0.00;0.00;;;;;31.66;30.72;100856.50;5019314;28;46062;-78
2022/05/25 07:46:05;;;;;;;;;0.00;0.00;;;;;29.76;32.06;100845.06;5019481;28;45828;-73
2022/05/25 07:48:30;;;;;;;;;0.00;0.00;;;;;28.30;35.43;100854.69;5020506;28;45653;-75
2022/05/25 07:50:57;;;;;;;;;0.00;0.00;;;;;27.13;37.48;100858.00;5022965;28;45358;-75
2022/05/25 07:56:07;;;;;;;;;0.00;0.00;;;;;25.88;40.35;100872.50;5022041;28;46161;-76
2022/05/25 07:58:33;;;;;;;;;1.00;0.00;;;;;25.41;41.13;100874.69;5022361;28;45436;-76
2022/05/25 08:01:12;;;;;;;;;0.00;0.00;;;;;24.63;42.63;100871.22;5021995;28;45485;-75
2022/05/25 08:06:23;;;;;;;;;0.00;0.00;;;;;23.28;46.08;100880.09;5019438;28;45527;-72
2022/05/25 08:08:50;;;;;;;;;0.00;0.00;;;;;22.79;47.41;100887.94;5019322;28;45315;-76
2022/05/25 08:11:18;;;;;;;;;0.00;0.00;;;;;22.44;48.14;100886.69;5018075;28;45273;-70
2022/05/25 08:13:47;;;;;;;;;0.00;0.00;;;;;22.12;49.26;100887.03;5018981;28;45478;-76
2022/05/25 08:16:13;;;;;;;;;0.00;0.00;;;;;21.86;49.46;100892.69;5019572;28;45287;-76
2022/05/25 08:18:39;;;;;;;;;1.00;0.00;;;;;21.66;50.16;100900.88;5019318;28;45451;-75
2022/05/25 08:21:05;;;;;;;;;0.00;0.00;;;;;21.50;49.74;100899.25;5019194;28;45407;-76
2022/05/25 08:23:31;;;;;;;;;7.00;7.00;;;;;21.20;50.60;100880.00;5018993;28;45419;-78
2022/05/25 08:25:57;;;;;;;;;4.00;3.67;;;;;21.18;50.74;100903.03;5018947;28;45496;-78
2022/05/25 08:28:22;;;;;;;;;0.00;0.00;;;;;20.95;51.31;100903.22;5019181;28;45524;-77
2022/05/25 08:30:48;;;;;;;;;1.67;1.00;;;;;20.76;50.85;100906.00;5019370;28;45360;-72
2022/05/25 08:33:20;;;;;;;;;4.00;4.00;;;;;20.57;51.39;100907.88;5019187;28;46151;-77
2022/05/25 08:35:46;;;;;;;;;5.00;4.00;;;;;20.35;52.60;100914.13;5019284;28;45437;-78
2022/05/25 08:38:12;;;;;;;;;2.33;2.00;;;;;19.94;52.18;100905.47;5018907;28;45486;-76
2022/05/25 08:40:39;;;;;;;;;1.00;1.00;;;;;19.73;52.97;100922.28;5019162;28;45695;-78
2022/05/25 08:43:22;;;;;;;;;2.33;2.00;;;;;19.60;54.19;100929.34;5018786;28;46058;-72
2022/05/25 08:46:00;;;;;;;;;2.00;1.00;;;;;19.48;53.28;100917.00;5019069;28;45498;-72
2022/05/25 08:48:28;;;;;;;;;1.00;0.00;;;;;19.65;53.51;100931.97;5019021;28;45289;-74
2022/05/25 08:51:00;;;;;;;;;2.00;1.00;;;;;19.79;53.10;100926.69;5018729;28;45540;-77
2022/05/25 08:53:26;;;;;;;;;1.00;1.00;;;;;19.71;53.46;100920.50;5018142;28;45539;-77
2022/05/25 08:56:01;;;;;;;;;1.00;0.67;;;;;19.66;53.64;100937.28;5018371;28;45499;-72
2022/05/25 08:58:42;;;;;;;;;2.00;1.00;;;;;19.54;53.71;100936.44;5018016;28;45532;-73
2022/05/25 09:01:13;;;;;;;;;0.00;0.00;;;;;19.50;54.26;100937.28;5018571;28;45437;-77
2022/05/25 09:03:53;;;;;;;;;0.00;0.00;;;;;19.52;53.90;100933.78;5017042;28;45547;-77
2022/05/25 09:06:41;;;;;;;;;0.00;0.00;;;;;19.57;54.66;100918.72;5017369;28;45535;-74
2022/05/25 09:09:30;;;;;;;;;0.00;0.00;;;;;19.71;53.54;100933.75;5018547;28;45253;-77
2022/05/25 09:12:04;;;;;;;;;1.00;0.00;;;;;19.55;53.49;100928.44;5018602;28;45319;-72
2022/05/25 09:14:43;;;;;;;;;0.00;0.00;;;;;19.41;53.79;100940.84;5018183;28;46090;-76
2022/05/25 09:17:25;;;;;;;;;0.00;0.00;;;;;19.28;54.28;100939.97;5017266;28;45450;-78
2022/05/25 09:19:52;;;;;;;;;0.00;0.00;;;;;19.17;53.48;100944.34;5018790;28;45437;-72
2022/05/25 09:22:21;;;;;;;;;0.00;0.00;;;;;19.10;53.20;100937.28;5017490;28;45332;-78
2022/05/25 09:24:49;;;;;;;;;0.00;0.00;;;;;19.18;52.91;100915.22;5018262;28;46227;-72
2022/05/25 09:27:19;;;;;;;;;0.00;0.00;;;;;19.67;52.33;100944.34;5017964;28;45387;-72
2022/05/25 09:29:45;;;;;;;;;2.67;0.67;;;;;19.96;52.05;100946.09;5017984;28;45242;-71
2022/05/25 09:32:47;;;;;;;;;0.00;0.00;;;;;20.33;51.22;100948.63;5017708;28;45573;-77
2022/05/25 09:35:16;;;;;;;;;14.00;13.33;;;;;20.68;49.90;100952.94;5017608;28;45214;-72
2022/05/25 09:38:11;;;;;;;;;2.33;2.33;;;;;20.70;49.80;100961.78;5017772;28;45383;-73
2022/05/25 09:40:45;;;;;;;;;4.67;3.67;;;;;20.70;49.71;100967.09;5017849;28;45407;-71
2022/05/25 09:43:17;;;;;;;;;0.00;0.00;;;;;20.62;48.68;100960.94;5017751;28;45277;-72
2022/05/25 09:45:48;;;;;;;;;1.00;1.00;;;;;20.39;49.22;100963.66;5017605;28;46015;-72
2022/05/25 09:48:22;;;;;;;;;0.00;0.00;;;;;20.23;49.43;100971.69;5017571;28;45478;-77
2022/05/25 09:50:59;;;;;;;;;0.33;0.00;;;;;20.13;50.39;100967.25;5018209;28;45569;-73
2022/05/25 09:53:38;;;;;;;;;1.00;0.00;;;;;19.91;49.96;100952.31;5016134;28;45482;-77
2022/05/25 09:56:09;;;;;;;;;1.00;0.00;;;;;19.85;50.25;100969.97;5017005;28;45502;-77
2022/05/25 09:58:43;;;;;;;;;0.00;0.00;;;;;19.75;50.39;100975.31;5017258;28;45511;-76
2022/05/25 10:01:33;;;;;;;;;0.00;0.00;;;;;19.74;51.28;100969.13;5017668;28;45387;-77
2022/05/25 10:04:00;;;;;;;;;0.67;0.67;;;;;19.79;53.15;100983.25;5017619;28;45582;-77
2022/05/25 10:06:32;;;;;;;;;0.00;0.00;;;;;19.89;53.17;100986.75;5017169;28;45334;-72
2022/05/25 10:09:09;;;;;;;;;1.00;0.33;;;;;19.92;52.65;100986.78;5017590;28;45314;-75
2022/05/25 10:11:52;;;;;;;;;1.00;1.00;;;;;19.97;52.90;100992.94;5017460;28;45570;-73
2022/05/25 10:14:35;;;;;;;;;0.67;0.00;;;;;20.06;53.11;100995.59;5017675;28;45503;-77
2022/05/25 10:17:09;;;;;;;;;3.00;2.00;;;;;20.24;52.70;101001.75;5017167;28;46189;-76
2022/05/25 10:19:46;;;;;;;;;1.33;0.33;;;;;20.46;52.41;101003.44;5017228;28;45425;-72
2022/05/25 10:22:32;;;;;;;;;0.00;0.00;;;;;20.60;49.69;101005.19;5017096;28;45521;-76
2022/05/25 10:25:09;;;;;;;;;0.00;0.00;;;;;20.73;48.94;100998.94;5016017;28;45490;-73
2022/05/25 10:27:39;;;;;;;;;0.00;0.00;;;;;20.83;47.90;101011.28;5016750;28;46005;-74
2022/05/25 10:36:49;;;;;;;;;0.00;0.00;;;;;21.16;45.99;101003.13;5017274;28;45230;-72
2022/05/25 10:39:28;;;;;;;;;0.00;0.00;;;;;21.28;45.91;100986.22;5016706;28;46183;-77
2022/05/25 10:42:12;;;;;;;;;0.00;0.00;;;;;21.49;45.07;101020.66;5017119;28;45350;-73
2022/05/25 10:44:58;;;;;;;;;2.00;0.67;;;;;21.21;45.73;100993.38;5016902;28;45573;-72
2022/05/25 10:47:50;;;;;;;;;0.00;0.00;;;;;21.38;46.39;101015.38;5017394;28;45332;-76
2022/05/25 10:50:32;;;;;;;;;0.00;0.00;;;;;21.49;45.13;101018.00;5006406;28;46004;-76
2022/05/25 10:53:06;;;;;;;;;1.67;0.00;;;;;21.59;45.64;101030.31;5016402;28;45389;-72
2022/05/25 10:55:41;;;;;;;;;1.33;1.00;;;;;21.48;45.60;101020.66;5015408;28;45466;-75
2022/05/25 10:58:20;;;;;;;;;0.00;0.00;;;;;21.38;45.37;101020.69;5016789;28;45517;-73
2022/05/25 11:00:55;;;;;;;;;2.00;1.00;;;;;21.28;45.17;101024.31;5016062;28;46265;-73
2022/05/25 11:03:45;;;;;;;;;0.00;0.00;;;;;21.06;45.64;101035.06;5015514;28;45448;-77
2022/05/25 11:06:39;;;;;;;;;0.00;0.00;;;;;20.75;46.66;101025.47;5016624;28;45444;-72
2022/05/25 11:09:34;;;;;;;;;0.00;0.00;;;;;20.67;47.97;101044.09;5016588;28;45414;-78
2022/05/25 11:12:14;;;;;;;;;0.67;0.00;;;;;20.53;47.75;101051.19;5016255;28;46298;-72
2022/05/25 11:15:13;;;;;;;;;0.00;0.00;;;;;20.32;47.91;101060.09;5016550;28;45458;-72
2022/05/25 11:17:57;;;;;;;;;0.00;0.00;;;;;19.94;49.36;101053.06;5016461;28;45469;-73
2022/05/25 11:20:48;;;;;;;;;1.00;0.00;;;;;19.50;50.53;101044.19;5016219;28;45431;-73
2022/05/25 11:23:39;;;;;;;;;0.67;0.00;;;;;19.31;51.84;101076.81;5016236;28;46118;-71
2022/05/25 11:26:17;;;;;;;;;1.00;1.00;;;;;19.21;53.17;101076.78;5016785;28;45446;-75
2022/05/25 11:29:03;;;;;;;;;1.67;1.67;;;;;19.21;54.01;101074.13;5015151;28;45215;-74
2022/05/25 11:31:31;;;;;;;;;1.00;0.00;;;;;19.25;53.97;101078.56;5016199;28;45297;-71
2022/05/25 11:34:32;;;;;;;;;0.00;0.00;;;;;19.42;53.06;101068.00;5016347;28;46062;-72
2022/05/25 11:37:04;;;;;;;;;0.33;0.00;;;;;19.63;52.69;101071.56;5007941;28;45230;-73
2022/05/25 11:40:06;;;;;;;;;1.00;1.00;;;;;19.82;52.31;101040.69;5016967;28;45514;-71
2022/05/25 11:42:42;;;;;;;;;3.00;2.00;;;;;20.32;52.01;101063.63;5019716;28;45311;-73
2022/05/25 11:45:22;;;;;;;;;0.67;0.00;;;;;20.59;50.48;101067.13;5019348;28;46152;-75
2022/05/25 11:47:56;;;;;;;;;1.33;1.00;;;;;20.79;50.11;101067.97;5019325;28;45181;-77
2022/05/25 11:50:22;;;;;;;;;3.67;3.00;;;;;20.97;49.06;101066.09;5019374;28;45327;-72
2022/05/25 11:53:15;;;;;;;;;2.67;2.67;;;;;21.39;47.65;101062.34;5018296;28;45283;-74
2022/05/25 11:56:16;;;;;;;;;1.00;0.00;;;;;21.50;46.48;101054.31;5018826;28;45271;-72
2022/05/25 11:59:19;;;;;;;;;1.00;0.00;;;;;21.49;46.18;101063.19;5006947;28;45484;-72
2022/05/25 12:02:08;;;;;;;;;6.00;4.33;;;;;21.57;44.74;101063.13;5019119;28;45253;-72
2022/05/25 12:05:02;;;;;;;;;0.00;0.00;;;;;22.09;43.30;101056.50;5019287;28;45423;-76
2022/05/25 12:07:58;;;;;;;;;0.00;0.00;;;;;22.26;44.83;101067.88;5019068;28;46312;-71
2022/05/25 12:10:43;;;;;;;;;0.00;0.00;;;;;22.33;44.26;101074.03;5019210;28;45513;-71